• Join FlightAware (Why Join?)
  • Login
  • US Flag 
07:02AM EDT


 

Airport Tracker/Info


-or-


 

Live Flight TrackerFlight Track Log ✈ SWA2521 ✈ 10-Aug-2013 ✈ KLAX - KLAS

Flight Track Log - Related Links

Times and Time Zones

All times are in EDT time to prevent confusion due to time zone crossing. See the SWA2521 flight status page for this flight to view local times or setup timezone preferences in your user account.

Time Position Orientation Groundspeed Altitude Reporting Facility
EDT Latitude Longitude Course Direction KTS MPH feet Rate Location/Type
09:54PM 33.9411 -118.5111 265° West 208 239 4,800  Level Los Angeles Center
09:55PM 33.9311 -118.5936 262° West 231 266 9,100 3,120 Climbing Los Angeles Center
09:56PM 33.8644 -118.5928 179° South 301 346 11,300 2,760 Climbing Los Angeles Center
09:57PM 33.8928 -118.4850 72° East 352 405 14,800 3,120 Climbing Los Angeles Center
09:58PM 33.9575 -118.3950 49° Northeast 368 423 17,800 3,000 Climbing Los Angeles Center
09:59PM 34.1800 -117.9733 59° Northeast  Level FlightAware Approximate
09:59PM 34.0189 -118.2839 56° Northeast 394 453 21,000  Level Los Angeles Center
10:00PM 34.0842 -118.1686 56° Northeast 409 471 23,400 2,880 Climbing Los Angeles Center
10:01PM 34.1494 -118.0514 56° Northeast 418 481 27,000 2,700 Climbing Los Angeles Center
10:03PM 34.2125 -117.9378 56° Northeast 410 472 29,000 960 Climbing Los Angeles Center
10:04PM 34.2769 -117.8242 56° Northeast 409 471 29,000  Level Los Angeles Center
10:05PM 34.3408 -117.7100 56° Northeast 411 473 29,000  Level Los Angeles Center
10:06PM 34.4142 -117.5836 55° Northeast 437 503 29,000  Level Los Angeles Center
10:07PM 34.4908 -117.4556 54° Northeast 467 537 29,000  Level Los Angeles Center
10:08PM 34.5800 -117.3025 55° Northeast 467 537 29,000  Level Los Angeles Center
10:09PM 34.6542 -117.1747 55° Northeast 467 537 29,000  Level Los Angeles Center
10:10PM 34.7286 -117.0444 55° Northeast 471 542 29,000  Level Los Angeles Center
10:11PM 34.8194 -116.8900 54° Northeast 472 543 29,000  Level Los Angeles Center
10:12PM 34.8939 -116.7603 55° Northeast 471 542 29,000 -120 Level Los Angeles Center
10:13PM 34.9692 -116.6303 55° Northeast 471 542 28,800 -1,740 Descending Los Angeles Center
10:14PM 35.0586 -116.4764 55° Northeast 467 537 25,500 -2,400 Descending Los Angeles Center
10:15PM 35.1322 -116.3586 53° Northeast 450 518 24,000 -780 Descending Los Angeles Center
10:16PM 35.2203 -116.2539 44° Northeast 443 510 24,000 -180 Level Los Angeles Center
10:17PM 35.3036 -116.1458 47° Northeast 438 504 23,700 -1,560 Descending Los Angeles Center
10:18PM 35.3867 -116.0417 46° Northeast 430 495 20,900 -2,640 Descending Los Angeles Center
10:19PM 35.4686 -115.9394 45° Northeast 424 488 18,300 -2,700 Descending Los Angeles Center
10:20PM 35.5497 -115.8419 44° Northeast 410 472 15,800 -2,700 Descending Los Angeles Center
10:21PM 35.6003 -115.7758 47° Northeast 396 456 14,100 -1,680 Descending Los Angeles Center
10:22PM 35.6750 -115.6806 46° Northeast 359 413 13,000 -1,140 Descending Los Angeles Center
10:23PM 35.6994 -115.5828 73° East 316 364 11,800 -1,200 Descending Los Angeles Center
10:23PM 35.6956 -115.5403 96° East 307 353 11,200 -1,800 Descending Los Angeles Center
10:24PM 35.7192 -115.4839 63° Northeast 307 353 9,800 -1,620 Descending Los Angeles Center
10:25PM 35.7961 -115.4111 37° Northeast 297 342 8,400 -960 Descending Los Angeles Center
10:26PM 35.8547 -115.3522 39° Northeast 269 310 7,800 -360 Descending Los Angeles Center
10:27PM 35.9061 -115.3011 39° Northeast 242 278 7,700 -600 Descending Los Angeles Center
10:28PM 35.9692 -115.3122 352° North 237 273 6,600 -1,260 Descending Los Angeles Center
10:29PM 36.0250 -115.3206 353° North 220 253 5,300 -1,260 Descending Los Angeles Center
10:30PM 36.0711 -115.2947 24° Northeast 188 216 4,200 -960 Descending Los Angeles Center
10:31PM 36.0731 -115.2436 87° East 162 186 3,500 -780 Descending Los Angeles Center
10:31PM 36.0733 -115.2150 89° East 162 186 3,100 -840 Descending Los Angeles Center
10:32PM 36.0739 -115.1875 89° East 150 173 2,600 -240 Descending Los Angeles Center
10:32PM 36.0725 -115.1672 95° East 147 169 2,900 600 Climbing Los Angeles Center
10:34PM 36.0801 -115.1523 95° East  Level Estimated
10:41PM 36.0801 -115.1523 270° West  Level Estimated